createdAt,value
2018-04-06T00:00:12.255Z,9.57
2018-04-06T00:02:39.714Z,19.33
2018-04-06T00:05:07.984Z,15.93
2018-04-06T00:07:35.451Z,12.83
2018-04-06T00:10:03.716Z,13.63
2018-04-06T00:12:31.206Z,14.60
2018-04-06T00:14:58.684Z,10.37
2018-04-06T00:17:26.168Z,13.57
2018-04-06T00:19:54.423Z,12.33
2018-04-06T00:22:21.916Z,12.97
2018-04-06T00:24:49.447Z,10.40
2018-04-06T00:27:16.970Z,10.53
2018-04-06T00:29:45.442Z,12.70
2018-04-06T00:32:13.717Z,12.33
2018-04-06T00:34:41.255Z,12.00
2018-04-06T00:37:09.471Z,11.70
2018-04-06T00:39:36.991Z,13.57
2018-04-06T00:42:04.510Z,10.67
2018-04-06T00:44:32.032Z,17.17
2018-04-06T00:46:59.564Z,12.10
2018-04-06T00:49:27.083Z,10.93
2018-04-06T00:51:54.589Z,14.30
2018-04-06T00:54:22.137Z,17.43
2018-04-06T00:56:49.628Z,11.90
2018-04-06T00:59:17.149Z,14.40
2018-04-06T01:01:44.656Z,13.33
2018-04-06T01:04:12.142Z,14.57
2018-04-06T01:06:39.649Z,14.90
2018-04-06T01:09:07.392Z,13.37
2018-04-06T01:11:34.872Z,13.17
2018-04-06T01:14:02.395Z,11.77
2018-04-06T01:16:30.788Z,15.40
2018-04-06T01:18:58.322Z,16.60
2018-04-06T01:21:25.829Z,15.70
2018-04-06T01:23:54.104Z,14.20
2018-04-06T01:26:22.349Z,10.43
2018-04-06T01:28:49.829Z,12.83
2018-04-06T01:31:18.083Z,14.20
2018-04-06T01:33:45.558Z,15.17
2018-04-06T01:36:13.843Z,15.10
2018-04-06T01:38:42.072Z,11.20
2018-04-06T01:41:09.558Z,18.90
2018-04-06T01:43:37.042Z,14.70
2018-04-06T01:46:04.500Z,9.83
2018-04-06T01:48:31.980Z,10.23
2018-04-06T01:50:59.461Z,14.70
2018-04-06T01:53:26.961Z,12.30
2018-04-06T01:55:55.223Z,14.07
2018-04-06T01:58:22.720Z,11.60
2018-04-06T02:00:50.213Z,13.00
2018-04-06T02:03:17.709Z,22.60
2018-04-06T02:05:45.968Z,16.60
2018-04-06T02:08:13.454Z,12.73
2018-04-06T02:10:40.935Z,20.60
2018-04-06T02:13:08.438Z,19.43
2018-04-06T02:15:35.922Z,13.43
2018-04-06T02:18:03.403Z,12.23
2018-04-06T02:20:30.890Z,15.03
2018-04-06T02:22:58.364Z,16.20
2018-04-06T02:25:25.847Z,12.90
2018-04-06T02:27:54.093Z,14.67
2018-04-06T02:30:21.578Z,12.93
2018-04-06T02:32:49.103Z,14.00
2018-04-06T02:35:16.572Z,16.10
2018-04-06T02:37:44.065Z,12.53
2018-04-06T02:40:11.542Z,14.17
2018-04-06T02:42:39.048Z,13.00
2018-04-06T02:45:06.538Z,10.73
2018-04-06T02:47:34.027Z,13.97
2018-04-06T02:50:01.547Z,11.97
2018-04-06T02:52:29.024Z,13.75
2018-04-06T02:54:56.505Z,10.80
2018-04-06T02:57:24.009Z,15.27
2018-04-06T02:59:51.495Z,15.57
2018-04-06T03:02:19.186Z,19.07
2018-04-06T03:04:46.664Z,16.90
2018-04-06T03:07:14.158Z,20.73
2018-04-06T03:09:42.412Z,17.07
2018-04-06T03:12:10.664Z,14.60
2018-04-06T03:14:38.160Z,14.23
2018-04-06T03:17:06.400Z,14.47
2018-04-06T03:19:34.642Z,15.23
2018-04-06T03:22:02.149Z,13.83
2018-04-06T03:24:29.634Z,19.17
2018-04-06T03:26:57.128Z,21.77
2018-04-06T03:29:24.612Z,15.90
2018-04-06T03:31:52.103Z,15.20
2018-04-06T03:34:20.376Z,14.53
2018-04-06T03:36:48.648Z,16.63
2018-04-06T03:39:16.913Z,15.90
2018-04-06T03:41:45.168Z,14.13
2018-04-06T03:44:12.649Z,23.60
2018-04-06T03:46:40.912Z,24.57
2018-04-06T03:49:08.374Z,17.87
2018-04-06T03:51:35.881Z,15.07
2018-04-06T03:54:03.361Z,25.10
2018-04-06T03:56:30.855Z,24.30
2018-04-06T03:58:59.124Z,13.87
2018-04-06T04:01:27.400Z,20.37
2018-04-06T04:03:55.719Z,21.03
2018-04-06T04:06:23.145Z,14.83
2018-04-06T04:08:50.664Z,25.00
2018-04-06T04:11:18.173Z,19.70
2018-04-06T04:13:45.647Z,17.90
2018-04-06T04:16:13.137Z,21.07
2018-04-06T04:18:40.634Z,17.33
2018-04-06T04:21:08.886Z,17.97
2018-04-06T04:23:36.386Z,25.23
2018-04-06T04:26:03.854Z,22.93
2018-04-06T04:28:31.344Z,23.03
2018-04-06T04:30:58.812Z,27.73
2018-04-06T04:33:26.289Z,37.67
2018-04-06T04:35:54.544Z,23.43
2018-04-06T04:38:22.067Z,35.67
2018-04-06T04:40:49.572Z,31.93
2018-04-06T04:43:17.070Z,30.80
2018-04-06T04:45:44.633Z,31.60
2018-04-06T04:48:12.163Z,29.27
2018-04-06T04:50:39.666Z,24.93
2018-04-06T04:53:07.161Z,35.33
2018-04-06T04:55:34.648Z,29.90
2018-04-06T04:58:02.123Z,39.17
2018-04-06T05:00:29.603Z,28.13
2018-04-06T05:02:57.115Z,29.03
2018-04-06T05:05:24.616Z,26.63
2018-04-06T05:07:52.109Z,28.30
2018-04-06T05:10:20.377Z,28.30
2018-04-06T05:12:47.871Z,32.87
2018-04-06T05:15:15.358Z,28.23
2018-04-06T05:17:42.854Z,28.87
2018-04-06T05:20:10.331Z,29.10
2018-04-06T05:22:38.581Z,28.47
2018-04-06T05:25:06.093Z,25.23
2018-04-06T05:27:33.566Z,28.47
2018-04-06T05:30:01.086Z,32.77
2018-04-06T05:32:28.561Z,36.57
2018-04-06T05:34:56.057Z,33.63
2018-04-06T05:37:23.610Z,31.90
2018-04-06T05:39:51.053Z,38.23
2018-04-06T05:42:18.587Z,27.53
2018-04-06T05:44:46.088Z,31.73
2018-04-06T05:47:13.604Z,33.60
2018-04-06T05:49:41.103Z,27.60
2018-04-06T05:52:08.603Z,26.63
2018-04-06T05:54:36.105Z,29.60
2018-04-06T05:57:03.590Z,25.83
2018-04-06T05:59:31.071Z,23.67
2018-04-06T06:01:59.333Z,24.83
2018-04-06T06:04:26.821Z,18.67
2018-04-06T06:06:54.306Z,23.60
2018-04-06T06:09:21.793Z,18.40
2018-04-06T06:11:49.270Z,19.53
2018-04-06T06:14:16.767Z,11.57
2018-04-06T06:16:44.250Z,20.90
2018-04-06T06:19:11.744Z,17.13
2018-04-06T06:21:39.993Z,13.40
2018-04-06T06:24:07.470Z,11.63
2018-04-06T06:26:34.968Z,14.30
2018-04-06T06:29:02.444Z,17.03
2018-04-06T06:31:33.305Z,18.93
2018-04-06T06:34:00.778Z,12.50
2018-04-06T06:36:29.031Z,13.63
2018-04-06T06:38:56.498Z,9.77
2018-04-06T06:41:23.975Z,9.73
2018-04-06T06:43:51.450Z,7.90
2018-04-06T06:46:18.962Z,11.43
2018-04-06T06:48:46.442Z,10.43
2018-04-06T06:51:19.635Z,11.00
2018-04-06T06:53:47.861Z,6.97
2018-04-06T06:56:15.329Z,7.80
2018-04-06T06:58:42.833Z,11.23
2018-04-06T07:01:10.303Z,9.63
2018-04-06T07:03:38.616Z,10.53
2018-04-06T07:06:06.190Z,6.17
2018-04-06T07:08:34.138Z,10.50
2018-04-06T07:11:05.682Z,9.97
2018-04-06T07:13:33.160Z,5.40
2018-04-06T07:16:00.673Z,7.50
2018-04-06T07:18:28.933Z,6.97
2018-04-06T07:20:59.358Z,12.17
2018-04-06T07:23:26.858Z,12.67
2018-04-06T07:25:54.351Z,12.07
2018-04-06T07:28:21.829Z,11.43
2018-04-06T07:30:50.068Z,9.50
2018-04-06T07:33:17.529Z,10.10
2018-04-06T07:35:45.016Z,7.63
2018-04-06T07:38:12.481Z,10.43
2018-04-06T07:40:40.742Z,12.00
2018-04-06T07:43:08.210Z,11.10
2018-04-06T07:45:36.458Z,13.43
2018-04-06T07:48:03.939Z,13.57
2018-04-06T07:50:31.408Z,10.73
2018-04-06T07:52:59.633Z,7.73
2018-04-06T07:55:27.093Z,9.67
2018-04-06T07:57:54.582Z,12.57
2018-04-06T08:00:22.040Z,9.90
2018-04-06T08:02:49.527Z,12.43
2018-04-06T08:05:17.030Z,7.40
2018-04-06T08:07:44.494Z,13.80
2018-04-06T08:10:12.004Z,14.20
2018-04-06T08:12:39.507Z,11.27
2018-04-06T08:15:06.966Z,12.53
2018-04-06T08:17:34.470Z,9.77
2018-04-06T08:20:02.678Z,9.00
2018-04-06T08:22:30.152Z,10.70
2018-04-06T08:24:57.614Z,11.13
2018-04-06T08:27:25.094Z,7.93
2018-04-06T08:29:53.896Z,5.67
2018-04-06T08:32:22.117Z,7.30
2018-04-06T08:34:49.650Z,7.33
2018-04-06T08:37:17.116Z,7.60
2018-04-06T08:39:44.591Z,9.50
2018-04-06T08:42:12.081Z,20.70
2018-04-06T08:44:39.532Z,6.80
2018-04-06T08:47:07.029Z,5.40
2018-04-06T08:49:34.497Z,10.57
2018-04-06T08:52:02.020Z,4.80
2018-04-06T08:54:29.501Z,6.67
2018-04-06T08:56:56.968Z,8.27
2018-04-06T08:59:24.461Z,4.77
2018-04-06T09:01:51.935Z,10.33
2018-04-06T09:04:19.379Z,9.07
2018-04-06T09:06:46.878Z,6.40
2018-04-06T09:09:14.364Z,7.40
2018-04-06T09:11:41.838Z,8.87
2018-04-06T09:14:09.306Z,13.33
2018-04-06T09:16:36.781Z,6.90
2018-04-06T09:19:04.268Z,7.13
2018-04-06T09:21:32.496Z,6.30
2018-04-06T09:23:59.978Z,6.23
2018-04-06T09:26:27.445Z,6.03
2018-04-06T09:28:55.662Z,7.37
2018-04-06T09:31:23.134Z,6.67
2018-04-06T09:33:50.598Z,5.93
2018-04-06T09:36:18.082Z,11.70
2018-04-06T09:38:46.324Z,4.83
2018-04-06T09:41:13.801Z,5.10
2018-04-06T09:43:41.275Z,6.70
2018-04-06T09:46:09.524Z,4.13
2018-04-06T09:48:37.034Z,5.90
2018-04-06T09:51:04.511Z,6.60
2018-04-06T09:53:31.980Z,7.53
2018-04-06T09:55:59.459Z,6.50
2018-04-06T09:58:26.924Z,5.63
2018-04-06T10:00:59.326Z,5.00
2018-04-06T10:03:26.788Z,10.20
2018-04-06T10:05:54.249Z,8.03
2018-04-06T10:08:21.749Z,5.77
2018-04-06T10:10:49.254Z,10.70
2018-04-06T10:13:16.710Z,9.33
2018-04-06T10:15:44.956Z,5.77
2018-04-06T10:18:12.442Z,8.00
2018-04-06T10:20:40.687Z,7.50
2018-04-06T10:23:08.162Z,8.10
2018-04-06T10:25:36.477Z,6.17
2018-04-06T10:28:04.760Z,5.40
2018-04-06T10:30:32.970Z,5.47
2018-04-06T10:33:00.464Z,10.20
2018-04-06T10:35:27.959Z,9.13
2018-04-06T10:37:55.469Z,5.90
2018-04-06T10:40:22.942Z,6.47
2018-04-06T10:42:50.426Z,6.50
2018-04-06T10:45:17.920Z,5.07
2018-04-06T10:47:45.391Z,7.97
2018-04-06T10:50:12.859Z,6.97
2018-04-06T10:52:41.122Z,5.93
2018-04-06T10:55:08.596Z,7.60
2018-04-06T10:57:36.105Z,12.17
2018-04-06T11:00:03.575Z,9.53
2018-04-06T11:02:31.078Z,5.17
2018-04-06T11:04:58.553Z,6.40
2018-04-06T11:07:26.023Z,6.90
2018-04-06T11:09:53.516Z,7.27
2018-04-06T11:12:21.007Z,5.07
2018-04-06T11:14:48.497Z,7.50
2018-04-06T11:17:15.961Z,7.20
2018-04-06T11:19:43.441Z,6.70
2018-04-06T11:22:10.916Z,6.90
2018-04-06T11:24:38.387Z,10.70
2018-04-06T11:27:05.888Z,4.80
2018-04-06T11:29:33.364Z,8.53
2018-04-06T11:32:00.855Z,6.93
2018-04-06T11:34:29.125Z,7.53
2018-04-06T11:36:57.352Z,6.73
2018-04-06T11:39:24.848Z,5.33
2018-04-06T11:41:52.318Z,16.10
2018-04-06T11:44:20.574Z,9.27
2018-04-06T11:46:48.030Z,9.30
2018-04-06T11:49:15.530Z,9.20
2018-04-06T11:51:43.016Z,7.40
2018-04-06T11:54:11.081Z,6.57
2018-04-06T11:56:39.286Z,13.10
2018-04-06T11:59:06.774Z,8.17
2018-04-06T12:01:35.028Z,7.27
2018-04-06T12:04:03.298Z,7.60
2018-04-06T12:06:30.776Z,7.10
2018-04-06T12:08:59.027Z,6.37
2018-04-06T12:11:26.509Z,6.20
2018-04-06T12:13:54.841Z,7.10
2018-04-06T12:16:22.327Z,7.03
2018-04-06T12:18:49.802Z,5.27
2018-04-06T12:21:18.056Z,9.10
2018-04-06T12:23:45.608Z,7.27
2018-04-06T12:26:13.027Z,6.07
2018-04-06T12:28:40.508Z,7.50
2018-04-06T12:31:08.068Z,6.13
2018-04-06T12:33:35.555Z,7.53
2018-04-06T12:36:03.059Z,6.10
2018-04-06T12:38:30.521Z,8.37
2018-04-06T12:40:58.008Z,5.37
2018-04-06T12:43:25.495Z,7.63
2018-04-06T12:45:52.988Z,7.27
2018-04-06T12:48:20.488Z,8.00
2018-04-06T12:50:47.946Z,8.20
2018-04-06T12:53:15.424Z,5.70
2018-04-06T12:55:42.927Z,8.83
2018-04-06T12:58:10.398Z,7.43
2018-04-06T13:00:37.892Z,6.13
2018-04-06T13:03:05.375Z,5.07
2018-04-06T13:05:33.694Z,6.37
2018-04-06T13:08:01.188Z,6.27
2018-04-06T13:10:28.686Z,4.97
2018-04-06T13:12:56.309Z,6.47
2018-04-06T13:15:24.666Z,8.53
2018-04-06T13:17:52.194Z,5.40
2018-04-06T13:20:19.678Z,5.23
2018-04-06T13:22:47.195Z,5.53
2018-04-06T13:25:14.691Z,9.37
2018-04-06T13:27:42.181Z,5.50
2018-04-06T13:30:09.752Z,6.47
2018-04-06T13:32:38.061Z,7.07
2018-04-06T13:35:05.800Z,9.07
2018-04-06T13:37:33.306Z,5.53
2018-04-06T13:40:00.800Z,8.63
2018-04-06T13:42:29.052Z,4.10
2018-04-06T13:44:56.811Z,6.77
2018-04-06T13:47:24.311Z,4.90
2018-04-06T13:49:52.572Z,4.70
2018-04-06T13:52:20.805Z,6.70
2018-04-06T13:54:48.280Z,4.50
2018-04-06T13:57:15.785Z,4.80
2018-04-06T13:59:43.275Z,4.30
2018-04-06T14:02:10.753Z,5.57
2018-04-06T14:04:38.208Z,7.40
2018-04-06T14:07:05.711Z,3.83
2018-04-06T14:09:33.224Z,4.57
2018-04-06T14:12:00.691Z,4.40
2018-04-06T14:14:29.065Z,4.90
2018-04-06T14:16:56.554Z,6.83
2018-04-06T14:19:24.794Z,5.17
2018-04-06T14:21:52.284Z,7.53
2018-04-06T14:24:21.118Z,6.63
2018-04-06T14:26:48.625Z,4.60
2018-04-06T14:29:16.860Z,7.53
2018-04-06T14:31:44.345Z,5.13
2018-04-06T14:34:12.596Z,7.23
2018-04-06T14:36:40.077Z,6.00
2018-04-06T14:39:07.593Z,5.40
2018-04-06T14:41:35.079Z,6.13
2018-04-06T14:44:02.550Z,4.90
2018-04-06T14:46:30.051Z,5.13
2018-04-06T14:48:57.529Z,5.60
2018-04-06T14:51:25.006Z,7.07
2018-04-06T14:53:52.463Z,5.07
2018-04-06T14:56:19.986Z,3.73
2018-04-06T14:58:47.479Z,4.03
2018-04-06T15:01:14.950Z,5.10
2018-04-06T15:03:42.466Z,4.83
2018-04-06T15:06:09.944Z,3.40
2018-04-06T15:08:37.482Z,6.20
2018-04-06T15:11:04.974Z,4.47
2018-04-06T15:13:32.440Z,4.93
2018-04-06T15:15:59.921Z,4.93
2018-04-06T15:18:27.404Z,3.33
2018-04-06T15:20:54.906Z,3.17
2018-04-06T15:23:23.296Z,5.70
2018-04-06T15:25:50.806Z,3.23
2018-04-06T15:28:19.761Z,4.20
2018-04-06T15:30:47.255Z,10.40
2018-04-06T15:33:14.733Z,5.70
2018-04-06T15:35:42.246Z,4.30
2018-04-06T15:38:09.723Z,3.70
2018-04-06T15:40:37.225Z,4.03
2018-04-06T15:43:04.709Z,4.00
2018-04-06T15:45:32.203Z,5.70
2018-04-06T15:48:01.492Z,9.43
2018-04-06T15:50:29.000Z,5.07
2018-04-06T15:52:56.513Z,4.00
2018-04-06T15:55:23.997Z,3.53
2018-04-06T15:57:51.472Z,4.70
2018-04-06T16:00:19.026Z,3.90
2018-04-06T16:02:46.515Z,4.10
2018-04-06T16:05:14.783Z,3.97
2018-04-06T16:07:43.036Z,10.67
2018-04-06T16:10:10.523Z,4.40
2018-04-06T16:12:38.048Z,3.80
2018-04-06T16:15:05.554Z,3.83
2018-04-06T16:17:33.088Z,3.40
2018-04-06T16:20:01.357Z,3.57
2018-04-06T16:22:28.825Z,3.10
2018-04-06T16:24:57.076Z,3.40
2018-04-06T16:27:24.573Z,4.40
2018-04-06T16:29:52.054Z,4.43
2018-04-06T16:32:19.531Z,5.53
2018-04-06T16:34:47.002Z,6.60
2018-04-06T16:37:14.511Z,5.70
2018-04-06T16:39:41.986Z,3.83
2018-04-06T16:42:09.502Z,4.83
2018-04-06T16:44:36.978Z,5.67
2018-04-06T16:47:04.485Z,4.60
2018-04-06T16:49:31.978Z,5.63
2018-04-06T16:52:00.224Z,10.53
2018-04-06T16:54:27.742Z,6.63
2018-04-06T16:56:55.229Z,4.93
2018-04-06T16:59:22.704Z,4.57
2018-04-06T17:01:50.204Z,3.70
2018-04-06T17:04:17.688Z,6.77
2018-04-06T17:06:45.191Z,7.43
2018-04-06T17:09:12.710Z,4.20
2018-04-06T17:11:40.200Z,3.40
2018-04-06T17:14:08.483Z,6.20
2018-04-06T17:16:36.732Z,4.80
2018-04-06T17:19:04.216Z,4.60
2018-04-06T17:21:32.476Z,6.43
2018-04-06T17:24:00.758Z,4.90
2018-04-06T17:26:28.238Z,4.43
2018-04-06T17:28:56.474Z,9.03
2018-04-06T17:31:23.961Z,6.17
2018-04-06T17:33:52.208Z,6.67
2018-04-06T17:36:19.675Z,5.53
2018-04-06T17:38:47.178Z,4.80
2018-04-06T17:41:14.643Z,4.43
2018-04-06T17:43:42.139Z,6.13
2018-04-06T17:46:09.613Z,3.80
2018-04-06T17:48:37.142Z,4.20
2018-04-06T17:51:04.645Z,5.07
2018-04-06T17:53:32.138Z,6.00
2018-04-06T17:55:59.624Z,9.37
2018-04-06T17:58:27.109Z,5.63
2018-04-06T18:00:54.624Z,7.60
2018-04-06T18:03:22.121Z,7.07
2018-04-06T18:05:50.363Z,5.93
2018-04-06T18:08:17.854Z,5.70
2018-04-06T18:10:46.099Z,7.17
2018-04-06T18:13:13.570Z,6.27
2018-04-06T18:15:41.067Z,5.40
2018-04-06T18:18:08.570Z,5.53
2018-04-06T18:20:36.057Z,6.93
2018-04-06T18:23:03.535Z,7.37
2018-04-06T18:25:31.010Z,8.10
2018-04-06T18:27:58.511Z,4.20
2018-04-06T18:30:26.006Z,6.27
2018-04-06T18:32:54.276Z,6.17
2018-04-06T18:35:22.532Z,8.80
2018-04-06T18:37:50.520Z,11.77
2018-04-06T18:40:18.024Z,6.10
2018-04-06T18:42:45.497Z,14.73
2018-04-06T18:45:12.985Z,9.70
2018-04-06T18:47:41.233Z,10.87
2018-04-06T18:50:08.957Z,13.70
2018-04-06T18:52:36.464Z,12.33
2018-04-06T18:55:04.770Z,9.80
2018-04-06T18:57:32.276Z,6.47
2018-04-06T18:59:59.792Z,6.13
2018-04-06T19:02:28.069Z,6.27
2018-04-06T19:04:56.356Z,8.23
2018-04-06T19:07:23.824Z,7.83
2018-04-06T19:09:51.330Z,7.80
2018-04-06T19:12:18.868Z,9.00
2018-04-06T19:14:46.372Z,7.00
2018-04-06T19:17:14.668Z,9.23
2018-04-06T19:19:42.185Z,11.13
2018-04-06T19:22:09.690Z,7.40
2018-04-06T19:24:37.187Z,6.10
2018-04-06T19:27:04.671Z,9.63
2018-04-06T19:29:32.186Z,6.23
2018-04-06T19:31:59.651Z,10.07
2018-04-06T19:34:27.132Z,6.13
2018-04-06T19:36:54.619Z,5.67
2018-04-06T19:39:22.135Z,6.17
2018-04-06T19:41:49.631Z,7.50
2018-04-06T19:44:17.134Z,8.83
2018-04-06T19:46:44.631Z,5.83
2018-04-06T19:49:12.889Z,6.37
2018-04-06T19:51:40.375Z,10.17
2018-04-06T19:54:08.629Z,7.60
2018-04-06T19:56:36.121Z,6.20
2018-04-06T19:59:03.634Z,8.30
2018-04-06T20:01:31.125Z,5.80
2018-04-06T20:03:59.372Z,6.23
2018-04-06T20:06:26.851Z,8.23
2018-04-06T20:08:55.117Z,7.83
2018-04-06T20:11:22.621Z,6.50
2018-04-06T20:13:50.085Z,6.63
2018-04-06T20:16:17.588Z,9.37
2018-04-06T20:18:45.070Z,7.27
2018-04-06T20:21:12.537Z,8.07
2018-04-06T20:23:40.037Z,8.90
2018-04-06T20:26:07.530Z,7.40
2018-04-06T20:28:35.792Z,9.47
2018-04-06T20:31:03.271Z,7.40
2018-04-06T20:33:31.527Z,10.00
2018-04-06T20:35:59.031Z,10.33
2018-04-06T20:38:26.513Z,9.30
2018-04-06T20:40:53.989Z,5.97
2018-04-06T20:43:21.472Z,7.70
2018-04-06T20:45:49.715Z,7.40
2018-04-06T20:48:17.242Z,6.90
2018-04-06T20:50:44.739Z,9.23
2018-04-06T20:53:12.233Z,6.80
2018-04-06T20:55:39.715Z,7.90
2018-04-06T20:58:07.198Z,6.00
2018-04-06T21:00:34.686Z,5.77
2018-04-06T21:03:02.949Z,10.93
2018-04-06T21:05:30.420Z,8.87
2018-04-06T21:07:58.669Z,16.17
2018-04-06T21:10:26.165Z,10.00
2018-04-06T21:12:54.456Z,6.80
2018-04-06T21:15:21.936Z,9.33
2018-04-06T21:17:49.413Z,8.10
2018-04-06T21:20:16.914Z,6.10
2018-04-06T21:22:44.375Z,9.40
2018-04-06T21:25:11.893Z,13.57
2018-04-06T21:27:39.390Z,8.83
2018-04-06T21:30:06.868Z,7.03
2018-04-06T21:32:34.348Z,7.40
2018-04-06T21:35:01.903Z,6.60
2018-04-06T21:37:29.383Z,8.37
2018-04-06T21:39:56.877Z,5.37
2018-04-06T21:42:24.347Z,7.07
2018-04-06T21:44:51.854Z,8.77
2018-04-06T21:47:19.334Z,6.80
2018-04-06T21:49:47.582Z,5.40
2018-04-06T21:52:15.062Z,9.40
2018-04-06T21:54:43.325Z,6.33
2018-04-06T21:57:10.821Z,7.63
2018-04-06T21:59:38.286Z,7.13
2018-04-06T22:02:05.785Z,7.83
2018-04-06T22:04:33.277Z,7.53
2018-04-06T22:07:00.741Z,12.80
2018-04-06T22:09:28.225Z,6.37
2018-04-06T22:11:55.721Z,7.40
2018-04-06T22:14:23.195Z,7.73
2018-04-06T22:16:50.669Z,5.80
2018-04-06T22:19:18.138Z,9.77
2018-04-06T22:21:45.614Z,8.70
2018-04-06T22:24:13.082Z,10.73
2018-04-06T22:26:40.550Z,8.93
2018-04-06T22:29:08.037Z,5.50
2018-04-06T22:31:36.267Z,8.80
2018-04-06T22:34:03.754Z,6.00
2018-04-06T22:36:31.212Z,6.30
2018-04-06T22:38:58.690Z,7.73
2018-04-06T22:41:26.391Z,7.83
2018-04-06T22:43:53.845Z,6.20
2018-04-06T22:46:21.338Z,7.10
2018-04-06T22:48:48.811Z,8.07
2018-04-06T22:51:16.284Z,7.23
2018-04-06T22:53:44.511Z,6.87
2018-04-06T22:56:11.969Z,8.70
2018-04-06T22:58:39.439Z,10.30
2018-04-06T23:01:06.918Z,8.87
2018-04-06T23:03:34.385Z,5.80
2018-04-06T23:06:02.647Z,6.97
2018-04-06T23:08:30.113Z,7.50
2018-04-06T23:10:57.572Z,6.87
2018-04-06T23:13:26.016Z,7.13
2018-04-06T23:15:53.475Z,6.23
2018-04-06T23:18:20.978Z,7.40
2018-04-06T23:20:49.216Z,6.97
2018-04-06T23:23:16.694Z,5.67
2018-04-06T23:25:44.177Z,9.63
2018-04-06T23:28:11.636Z,7.63
2018-04-06T23:30:39.114Z,7.67
2018-04-06T23:33:06.588Z,10.03
2018-04-06T23:35:34.056Z,7.90
2018-04-06T23:38:01.543Z,6.67
2018-04-06T23:40:29.024Z,7.87
2018-04-06T23:42:56.530Z,10.77
2018-04-06T23:45:23.982Z,7.70
2018-04-06T23:47:51.453Z,8.30
2018-04-06T23:50:18.940Z,8.53
2018-04-06T23:52:47.172Z,8.50
2018-04-06T23:55:14.663Z,12.63
2018-04-06T23:57:42.134Z,8.97
